Kinsey, Alabama
Current Conditions -  °F | °C
As of 12:53 PM on Thursday 23 Oct 2014 (Local Time) from KDHN Reporting Station
Clear Clear  
Wind Chill: 71°   Ceiling: Unl
Heat Index: 71°   Visibility: 10mi
Dew Point: 42°   Wind: 0mph
Humidity: 35%   Direction: NA
Pressure: 30.1"   Gusts: NA
Location:  31.271°N, 85.3923°W
Report Text: KDHN 231753Z 00000KT 10SM CLR 22/06 A3010 RMK AO2 SLP191 T02170056 10217 20067 58016
Loading
Personal Weather Stations






























Interactive Weather Map
Tropical Storm Tracking
New forecast layout! Learn more

10-Day Weather Forecast

Advertisements
Track Severe Weather on mobile